Allenton, Michigan
Current Conditions -  °F | °C
As of 8:34 PM on Monday 20 Oct 2014 (Local Time) from KD95 Reporting Station
Light Rain Light Rain  
Wind Chill: 51°   Ceiling: 5000
Heat Index: 51°   Visibility: 7mi
Dew Point: 49°   Wind: 3mph
Humidity: 90%   Direction: 260°W
Pressure: 29.84"   Gusts: NA
Location:  42.92°N, 82.95°W
Report Text: KD95 210034Z AUTO 26003KT 7SM -RA SCT023 BKN050 OVC060 11/09 A2984 RMK AO2 P0001 T01080093
Loading
Personal Weather Stations






























Interactive Weather Map New forecast layout! Learn more

10-Day Weather Forecast

Advertisements
Track Severe Weather on mobile